Latest Coastal Weather Observations for Parndana

IDS60701

Issued at 7:51 am CST Sunday 26 June 2022 (issued every 10 minutes, with the page automatically refreshed every 10 minutes)

About coastal observations | Map of coastal stations | Coastal observations for SA | Marine services | Other Formats
Station Details ID: 022843 Name: PARNDANA CFS AWS Lat: -35.79 Lon: 137.25 Height: 165.0 m
Data from the previous 72 hours. | See also: Recent months at Parndana
Date/Time
CST
Wind Sea
Height
m
Swell Vis
km
Cloud Weather Temp
°C
Press
MSL
hPa
Rain since
9am
mm
Dir  Spd
kts
Gust
kts
Height
m
Period
s
Dir
26/07:30am W 5 7 - - - - - - - 6.9 - 1.4
26/07:00am W 5 6 - - - - - - - 7.2 - 1.4
26/06:30am W 6 7 - - - - - - - 8.5 - 1.4
26/06:00am WSW 7 9 - - - - - - Recent precip. 9.0 - 1.0
26/05:30am W 7 8 - - - - - - - 8.0 - 0.8
26/05:00am WNW 7 7 - - - - - - - 7.3 - 0.8
26/04:30am WNW 6 7 - - - - - - - 7.6 - 0.8
26/04:00am W 7 8 - - - - - - - 7.4 - 0.8
26/03:30am W 7 7 - - - - - - - 7.1 - 0.8
26/03:00am WSW 7 8 - - - - - - - 7.4 - 0.8
26/02:30am W 7 8 - - - - - - - 7.2 - 0.8
26/02:00am WNW 6 6 - - - - - - - 7.4 - 0.8
26/01:30am WNW 5 6 - - - - - - - 7.6 - 0.8
26/01:00am WNW 6 7 - - - - - - - 6.7 - 0.8
26/12:30am NW 7 8 - - - - - - - 7.2 - 0.8
26/12:00am WNW 7 7 - - - - - - - 7.2 - 0.8
 
Date/Time
CST
Wind Sea
Height
m
Swell Vis
km
Cloud Weather Temp
°C
Press
MSL
hPa
Rain since
9am
mm
Dir  Spd
kts
Gust
kts
Height
m
Period
s
Dir
25/11:30pm NW 7 7 - - - - - - - 7.3 - 0.8
25/11:00pm WNW 6 7 - - - - - - - 7.8 - 0.8
25/10:30pm WNW 7 8 - - - - - - - 8.5 - 0.8
25/10:00pm WNW 7 8 - - - - - - - 8.6 - 0.8
25/09:30pm W 7 8 - - - - - - - 9.2 - 0.8
25/09:00pm W 7 9 - - - - - - Recent precip. 9.4 - 0.8
25/08:30pm WNW 8 10 - - - - - - - 10.1 - 0.8
25/08:00pm WNW 8 10 - - - - - - - 10.3 - 0.6
25/07:30pm WNW 7 10 - - - - - - - 10.4 - 0.6
25/07:00pm WNW 7 8 - - - - - - - 11.0 - 0.6
25/06:30pm W 5 10 - - - - - - - 10.9 - 0.6
25/06:00pm NW 6 7 - - - - - - - 10.6 - 0.4
25/05:30pm WNW 8 9 - - - - - - - 11.0 - 0.4
25/05:00pm WNW 8 11 - - - - - - - 11.6 - 0.4
25/04:30pm WNW 9 14 - - - - - - - 13.2 - 0.4
25/04:00pm WNW 9 12 - - - - - - - 13.2 - 0.4
25/03:30pm WNW 12 16 - - - - - - - 14.4 - 0.4
25/03:00pm WNW 13 18 - - - - - - - 14.2 - 0.4
25/02:30pm W 13 18 - - - - - - - 13.8 - 0.4
25/02:00pm W 12 18 - - - - - - - 14.8 - 0.4
25/01:30pm WNW 11 15 - - - - - - - 13.8 - 0.4
25/01:00pm WNW 14 20 - - - - - - - 14.9 - 0.2
25/12:30pm WNW 11 14 - - - - - - - 13.4 - 0.2
25/12:00pm WNW 12 18 - - - - - - Recent precip. 13.4 - 0.2
25/11:30am WNW 15 21 - - - - - - - 12.7 - 0.0
25/11:00am WNW 11 15 - - - - - - - 14.2 - 0.0
25/10:30am NW 9 12 - - - - - - - 13.0 - 0.0
25/10:00am NW 8 11 - - - - - - - 12.3 - 0.0
25/09:30am NW 6 8 - - - - - - - 11.5 - 0.0
25/09:00am WNW 9 17 - - - - - - - 11.2 - 0.2
25/08:30am NW 6 7 - - - - - - - 9.2 - 0.2
25/08:00am NW 6 7 - - - - - - - 7.5 - 0.2
25/07:30am NW 6 7 - - - - - - - 6.8 - 0.2
25/07:00am WNW 6 7 - - - - - - - 7.5 - 0.2
25/06:30am WNW 6 7 - - - - - - - 7.3 - 0.2
25/06:00am NW 6 7 - - - - - - - 8.1 - 0.2
25/05:30am NW 6 7 - - - - - - - 8.0 - 0.2
25/05:00am NW 6 8 - - - - - - - 8.2 - 0.2
25/04:30am WNW 8 10 - - - - - - - 9.1 - 0.2
25/04:00am WNW 7 9 - - - - - - - 9.2 - 0.2
25/03:30am NW 7 7 - - - - - - - 8.0 - 0.2
25/03:00am WNW 8 10 - - - - - - - 8.6 - 0.2
25/02:30am WNW 6 7 - - - - - - - 7.1 - 0.2
25/02:00am WNW 4 5 - - - - - - - 8.5 - 0.2
25/01:30am W 6 9 - - - - - - - 9.3 - 0.2
25/01:00am W 4 5 - - - - - - - 7.1 - 0.2
25/12:30am WNW 7 8 - - - - - - - 7.5 - 0.2
25/12:00am WNW 5 6 - - - - - - - 7.3 - 0.2
 
Date/Time
CST
Wind Sea
Height
m
Swell Vis
km
Cloud Weather Temp
°C
Press
MSL
hPa
Rain since
9am
mm
Dir  Spd
kts
Gust
kts
Height
m
Period
s
Dir
24/11:30pm WNW 5 6 - - - - - - - 7.5 - 0.2
24/11:00pm WNW 6 8 - - - - - - - 7.8 - 0.2
24/10:30pm WNW 6 7 - - - - - - - 6.7 - 0.2
24/10:00pm WNW 6 6 - - - - - - - 6.4 - 0.0
24/09:30pm W 5 6 - - - - - - - 6.6 - 0.0
24/09:00pm WNW 6 7 - - - - - - - 6.9 - 0.0
24/08:30pm NW 3 4 - - - - - - - 8.0 - 0.0
24/08:00pm NW 5 6 - - - - - - - 7.7 - 0.0
24/07:30pm WNW 4 5 - - - - - - - 8.1 - 0.0
24/07:00pm W 6 9 - - - - - - - 9.3 - 0.0
24/06:30pm NW 4 5 - - - - - - - 9.2 - 0.0
24/06:00pm WNW 3 4 - - - - - - - 9.6 - 0.0
24/05:30pm NW 7 11 - - - - - - - 10.4 - 0.0
24/05:00pm W 14 21 - - - - - - - 11.2 - 0.0
24/04:58pm W 13 21 - - - - - - - 11.4 - 0.0
24/04:30pm W 7 8 - - - - - - - 12.1 - 0.0
24/04:00pm W 9 15 - - - - - - - 13.7 - 0.0
24/03:30pm W 8 10 - - - - - - - 13.0 - 0.0
24/03:00pm WSW 8 12 - - - - - - - 14.6 - 0.0
24/02:30pm WSW 9 14 - - - - - - - 13.7 - 0.0
24/02:00pm WSW 11 15 - - - - - - - 14.7 - 0.0
24/01:30pm WSW 10 14 - - - - - - - 14.4 - 0.0
24/01:00pm WSW 7 11 - - - - - - - 13.9 - 0.0
24/12:30pm WSW 10 15 - - - - - - - 14.9 - 0.0
24/12:00pm WSW 9 13 - - - - - - - 13.5 - 0.0
24/11:30am W 8 11 - - - - - - - 14.4 - 0.0
24/11:00am WSW 10 13 - - - - - - - 12.8 - 0.0
24/10:30am WSW 8 11 - - - - - - - 13.6 - 0.0
24/10:00am WSW 8 10 - - - - - - - 12.9 - 0.0
24/09:30am W 6 7 - - - - - - - 12.0 - 0.0
24/09:00am WSW 5 7 - - - - - - - 10.7 - 0.6
24/08:30am SW 8 10 - - - - - - - 10.7 - 0.6
24/08:00am WSW 6 8 - - - - - - - 9.6 - 0.6
24/07:30am WSW 5 7 - - - - - - - 9.3 - 0.6
24/07:00am WSW 6 8 - - - - - - - 9.9 - 0.4
24/06:30am WSW 8 10 - - - - - - - 10.4 - 0.4
24/06:00am W 5 6 - - - - - - - 8.9 - 0.4
24/05:30am WSW 5 6 - - - - - - - 10.0 - 0.4
24/05:00am WSW 7 9 - - - - - - - 10.9 - 0.4
24/04:30am W 6 8 - - - - - - - 11.0 - 0.2
24/04:00am W 7 8 - - - - - - - 10.8 - 0.2
24/03:30am W 5 7 - - - - - - - 11.6 - 0.2
24/03:00am W 7 9 - - - - - - - 11.7 - 0.2
24/02:30am W 6 7 - - - - - - - 10.6 - 0.2
24/02:00am W 7 8 - - - - - - - 10.5 - 0.2
24/01:30am W 8 10 - - - - - - - 11.5 - 0.2
24/01:00am WSW 7 10 - - - - - - - 12.3 - 0.2
24/12:30am WSW 8 12 - - - - - - - 12.8 - 0.2
24/12:00am WSW 9 12 - - - - - - - 13.6 - 0.2
 
Date/Time
CST
Wind Sea
Height
m
Swell Vis
km
Cloud Weather Temp
°C
Press
MSL
hPa
Rain since
9am
mm
Dir  Spd
kts
Gust
kts
Height
m
Period
s
Dir
23/11:30pm WSW 8 11 - - - - - - - 13.6 - 0.2
23/11:00pm WSW 12 19 - - - - - - - 14.3 - 0.2
23/10:30pm WNW 11 13 - - - - - - - 14.6 - 0.2
23/10:00pm WNW 11 14 - - - - - - - 14.7 - 0.2
23/09:30pm WNW 12 16 - - - - - - - 14.8 - 0.2
23/09:00pm NW 12 18 - - - - - - - 14.6 - 0.2
23/08:30pm WNW 14 20 - - - - - - - 14.7 - 0.2
23/08:00pm NW 13 17 - - - - - - - 14.0 - 0.2
23/07:30pm NW 12 15 - - - - - - - 14.1 - 0.2
23/07:00pm NW 11 14 - - - - - - - 14.0 - 0.2
23/06:30pm NW 10 14 - - - - - - - 14.1 - 0.2
23/06:00pm NW 10 12 - - - - - - - 14.1 - 0.2
23/05:30pm NW 11 15 - - - - - - - 14.4 - 0.2
23/05:00pm NW 13 18 - - - - - - - 14.7 - 0.2
23/04:30pm NW 14 19 - - - - - - - 15.1 - 0.2
23/04:00pm NW 14 19 - - - - - - - 15.4 - 0.2
23/03:30pm NW 14 19 - - - - - - - 15.8 - 0.2
23/03:00pm NW 17 23 - - - - - - - 16.1 - 0.2
23/02:30pm NW 16 23 - - - - - - - 16.2 - 0.2
23/02:00pm NW 15 22 - - - - - - - 16.0 - 0.2
23/01:30pm NNW 14 18 - - - - - - - 16.4 - 0.2
23/01:00pm NNW 15 23 - - - - - - - 15.9 - 0.2
23/12:30pm NNW 14 19 - - - - - - - 16.2 - 0.2
23/12:00pm NNW 15 21 - - - - - - - 15.7 - 0.2
23/11:30am NNW 13 19 - - - - - - - 15.8 - 0.2
23/11:00am NNW 10 14 - - - - - - - 15.8 - 0.2
23/10:30am NNW 12 17 - - - - - - - 15.0 - 0.2
23/10:00am NNW 11 16 - - - - - - - 14.7 - 0.2
23/09:30am NNW 10 13 - - - - - - - 14.3 - 0.0
23/09:00am N 10 13 - - - - - - - 13.3 - 2.0
23/08:30am NNW 8 11 - - - - - - - 12.4 - 2.0
23/08:00am NNW 11 14 - - - - - - - 12.2 - 2.0

Other formats

Comma delimited format used in spreadsheet applications
http://www.bom.gov.au/fwo/IDS60701/IDS60701.94807.axf

JavaScript Object Notation format (JSON) in row-major order
http://www.bom.gov.au/fwo/IDS60701/IDS60701.94807.json

Data quality

Most of these data are generated automatically and are frequently updated. Quality checks on data are not normally performed. It is possible for incorrect values to appear. Refer to information at About Latest Weather Observations and please check the disclaimer before using these data.